MUCL

Details ICAO MUCL (CYO)
Name VILO ACUNA INTL
Region Cuba
Timezone America/Havana (UTC-5.0)
Plans Departing 15
Arriving 18
Stats Elevation 10 ft / 3 m (AMSL)
Location 21.616452° -81.546000°
Runways 1
Magnetic Variation 5.233° W
Sunrise 2017-12-10 11:55:14 UTC / 2017-12-10 06:55:14 Local
Sunset 2017-12-10 22:45:52 UTC / 2017-12-10 17:45:52 Local
Advertisement - Login to hide

Runways

ID Width Length Bearing (true) Bearing (mag) Surface Threshold Offset Overrun Length
12 148 ft / 45 m 9,868 ft / 3,008 m 116.16° 121.39° Asphalt 0 ft / 0 m 197 ft / 60 m
30 148 ft / 45 m 9,868 ft / 3,008 m 296.17° 301.40° Asphalt 0 ft / 0 m 197 ft / 60 m

Map

Weather


0- 5 10 15 20 25 30 35+ Temperature / ° C

Clouds and Precipitation
Forecast for 2017-12-11 06:00 UTC. Updated an hour ago

Ground ~20,000 ft ~40,000 ft Winds

METAR

MUCL 110205Z AUTO 02016KT 19/12 Q1024

TAF

Not found

Frequencies

Tower 118.50 MHz CAYO LARGO TWR
Approach 120.10 MHz CAYO LARGO APP
Warning: Do not use this data for real-world aviation or navigation. No guarantee of current accuracy is given.